Charlotte, NC

8:43 AM EST on March 02, 2015 (GMT -0500)
Charlotte-Douglas International | Change Station
CLOSE
Current Station
Airport
Location: Charlotte,
Elevation: 748 ft
Nearby Weather Stations
Active Advisory: Dense Fog Advisory

Elev 748 ft 35.22 °N, 80.95 °W | Updated 51 minutes ago

Fog
Fog
43 °F
Feels Like 43 °F
N
0
Wind Variable Wind from North

Today
High -- | Low -- °F
--% Chance of Precip.
Yesterday
High -- | Low -- °F
Precip. -- in
6:52 AM 6:19 PM
Waxing Gibbous, 91% visible
Pressure 30.25 in
Visibility 0.2 miles
Clouds
Dew Point 41 °F
Humidity 93%
Rainfall 0.00 in
Snow Depth Not available.
UV Not available.
Pollen 1.60 out of 12
Air Quality Not available.
Flu Activity Not available.
METAR KCLT 021252Z 00000KT 1/4SM R18C/1200FT FG VV002 06/05 A3023 RMK AO2 TWR VIS 1/2 DZE45 SLP241 P0000 T00610050

More Conditions Fewer Conditions

Pressure 30.25 in
Visibility 0.2 miles
Clouds
Dew Point 41 °F
Humidity 93%
Rainfall 0.00 in
Snow Depth Not available.
UV Not available.
Pollen 1.60 out of 12
Air Quality Not available.
Flu Activity Not available.
METAR KCLT 021252Z 00000KT 1/4SM R18C/1200FT FG VV002 06/05 A3023 RMK AO2 TWR VIS 1/2 DZE45 SLP241 P0000 T00610050

More Conditions Fewer Conditions

10-Day Weather Forecast

Almanac

Astronomy

Mar. 02, 2015 Rise Set
Actual Time
Civil Twilight
Nautical Twilight
Astronomical Twilight
Moon
Length of Visible Light
Length of Day
Tomorrow will be .
, % of the Moon is Illuminated

Today's Extremes

State Highs State Lows

Community

WunderPhotos

Upload Photos

1,801,784 photos uploaded!

WunderBlogs® & News

Nearby

Air Quality

  Air Quality AQ Index Pollutant
Not available.

Snow Depth

Station Depth Elevation

Earthquake Activity

City Distance Mag. Time & Date
Minimum magnitude displayed is 2.5.

Coastal Water Temperatures

Place Temperature

Nearby Weather Stations

Dense Fog Advisory
Statement as of 8:04 AM EST on March 02, 2015

... Dense fog advisory remains in effect until 10 am EST this
morning...

* locations... the Piedmont and foothills of North Carolina.
Upstate South Carolina along and east of Highway 25.

* Visibility... one quarter mile or less at times.

* Impacts... motorists traveling along I-85 from Greenville to
Charlotte... I-40 east of the mountains... I-77... as well as
other highways and roads across the region... should be
prepared for poor travel conditions.

Precautionary/preparedness actions...

A dense fog advisory means visibilities will frequently be
reduced to less than one quarter mile. If driving... slow down...
use your headlights... and leave plenty of distance ahead of you.



PM